Time;durP1;ratioP1;P1;durP2;ratioP2;P2;SDS_P1;SDS_P2;PMS_P1;PMS_P2;Temp;Humidity;BMP_temperature;BMP_pressure;BME280_temperature;BME280_humidity;BME280_pressure;Samples;Min_cycle;Max_cycle;Signal;HPM_P1;HPM_P2
2021/11/17 02:26:34;;;;;;;23.57;13.70;;;;;;;-3.43;100.00;100168.62;1752861;80;20884;-61
2021/11/17 02:29:28;;;;;;;20.72;12.55;;;;;;;-3.45;100.00;100167.62;1756419;80;21444;-61
2021/11/17 02:32:31;;;;;;;22.90;12.75;;;;;;;-3.48;100.00;100164.84;1762785;79;21462;-61
2021/11/17 02:35:43;;;;;;;21.60;12.33;;;;;;;-3.50;100.00;100165.15;1749853;80;20936;-62
2021/11/17 02:38:48;;;;;;;20.77;12.37;;;;;;;-3.53;100.00;100168.42;1752742;80;21563;-61
2021/11/17 02:41:55;;;;;;;20.48;12.55;;;;;;;-3.56;100.00;100165.64;1722160;81;21051;-61
2021/11/17 02:44:44;;;;;;;21.48;12.68;;;;;;;-3.60;100.00;100158.89;1769828;79;21048;-62
2021/11/17 02:47:27;;;;;;;20.50;13.40;;;;;;;-3.65;100.00;100156.02;1769156;79;21511;-63
2021/11/17 02:50:40;;;;;;;22.17;12.47;;;;;;;-3.68;100.00;100154.92;1769978;79;20933;-64
2021/11/17 02:53:35;;;;;;;22.60;12.50;;;;;;;-3.69;100.00;100155.31;1722766;82;21422;-61
2021/11/17 02:56:29;;;;;;;18.65;12.28;;;;;;;-3.73;100.00;100153.33;1693582;83;21467;-61
2021/11/17 02:59:31;;;;;;;23.07;12.45;;;;;;;-3.74;100.00;100155.41;1705877;83;21931;-61
2021/11/17 03:02:50;;;;;;;21.42;12.68;;;;;;;-3.75;100.00;100148.86;1689436;83;21415;-61
2021/11/17 03:06:09;;;;;;;;;;;;;;;;;;;;;
2021/11/17 03:08:51;;;;;;;17.15;11.57;;;;;;;-3.75;100.00;100148.86;1627949;86;21577;-62
2021/11/17 03:11:47;;;;;;;19.87;12.00;;;;;;;-3.74;100.00;100139.94;1640394;87;21535;-61
2021/11/17 03:14:47;;;;;;;;;;;;;;;-3.70;100.00;100144.91;1617430;87;21479;-61
2021/11/17 03:17:31;;;;;;;21.97;13.43;;;;;;;-3.72;100.00;100149.06;1598196;88;20438;-62
2021/11/17 03:20:14;;;;;;;20.12;11.60;;;;;;;-3.75;100.00;100145.00;1683895;83;21456;-61
2021/11/17 03:23:19;;;;;;;22.58;12.30;;;;;;;-3.81;100.00;100136.43;1758472;79;21475;-62
2021/11/17 03:26:21;;;;;;;20.55;11.85;;;;;;;-3.82;100.00;100137.22;1757198;80;21443;-63
2021/11/17 03:29:25;;;;;;;27.20;12.78;;;;;;;-3.80;100.00;100136.92;1756205;80;21252;-64
2021/11/17 03:32:52;;;;;;;20.88;12.05;;;;;;;-3.83;100.00;100129.88;1717867;81;21536;-62
2021/11/17 03:36:01;;;;;;;19.87;11.57;;;;;;;-3.89;100.00;100140.19;1758477;81;20904;-61
2021/11/17 03:38:39;;;;;;;25.68;12.63;;;;;;;-3.95;100.00;100132.05;1749764;80;21428;-62
2021/11/17 03:41:35;;;;;;;20.30;11.28;;;;;;;-3.98;100.00;100135.71;1741070;79;21004;-63
2021/11/17 03:45:06;;;;;;;23.40;11.95;;;;;;;-3.98;100.00;100131.84;1764973;79;21448;-61
2021/11/17 03:48:38;;;;;;;20.10;11.30;;;;;;;-4.01;100.00;100129.95;1766022;79;20872;-61
2021/11/17 03:52:00;;;;;;;19.07;12.07;;;;;;;-4.00;100.00;100128.27;1765231;79;21360;-63
2021/11/17 03:55:21;;;;;;;20.50;12.03;;;;;;;-3.99;100.00;100129.66;1763108;79;21424;-61
2021/11/17 03:58:29;;;;;;;19.65;12.55;;;;;;;-3.97;100.00;100136.21;1764834;81;21408;-61
2021/11/17 04:01:39;;;;;;;20.15;12.80;;;;;;;-4.02;100.00;100129.86;1761938;79;21396;-64
2021/11/17 04:04:44;;;;;;;20.88;13.00;;;;;;;-4.09;100.00;100128.55;1765866;79;20869;-64
2021/11/17 04:07:43;;;;;;;22.37;13.65;;;;;;;-4.10;100.00;100127.16;1710818;82;21451;-62
2021/11/17 04:10:34;;;;;;;23.67;14.38;;;;;;;-4.05;100.00;100122.81;1663539;85;21503;-65
2021/11/17 04:13:49;;;;;;;23.25;13.08;;;;;;;-4.03;100.00;100122.92;1736857;81;20923;-62
2021/11/17 04:16:55;;;;;;;25.65;12.80;;;;;;;-4.08;100.00;100121.72;1745774;80;21459;-64
2021/11/17 04:19:45;;;;;;;21.20;12.80;;;;;;;-4.20;100.00;100126.55;1749787;81;21699;-64
2021/11/17 04:22:54;;;;;;;20.02;12.43;;;;;;;-4.27;100.00;100119.16;1750655;80;20930;-64
2021/11/17 04:26:15;;;;;;;19.50;12.05;;;;;;;-4.29;100.00;100118.56;1741218;82;21022;-64
2021/11/17 04:28:57;;;;;;;25.25;13.32;;;;;;;-4.24;100.00;100117.22;1745198;82;21034;-62
2021/11/17 04:31:45;;;;;;;23.47;13.75;;;;;;;-4.20;100.00;100107.23;1748442;80;21276;-68
2021/11/17 04:34:38;;;;;;;35.95;14.15;;;;;;;-4.15;100.00;100103.67;1749750;81;21447;-65
2021/11/17 04:37:16;;;;;;;21.45;13.83;;;;;;;-4.12;100.00;100098.33;1747340;80;21434;-65
2021/11/17 04:40:10;;;;;;;23.83;13.03;;;;;;;-4.09;100.00;100095.06;1765015;80;21498;-65
2021/11/17 04:42:55;;;;;;;38.13;16.37;;;;;;;-4.09;100.00;100089.02;1753255;79;20880;-64
2021/11/17 04:45:42;;;;;;;23.35;13.93;;;;;;;-4.08;100.00;100093.38;1749669;82;21114;-64
2021/11/17 04:49:01;;;;;;;28.90;15.30;;;;;;;-4.09;100.00;100095.06;1759427;79;20833;-64
2021/11/17 04:51:40;;;;;;;36.20;14.43;;;;;;;-4.10;100.00;100089.41;1749887;81;20900;-65
2021/11/17 04:54:30;;;;;;;27.65;15.05;;;;;;;-4.13;100.00;100085.34;1738644;80;21485;-64
2021/11/17 04:57:42;;;;;;;22.30;13.88;;;;;;;-4.16;100.00;100089.00;1752546;80;20976;-64
2021/11/17 05:00:34;;;;;;;28.70;14.35;;;;;;;-4.18;100.00;100093.16;1731041;81;21487;-64
2021/11/17 05:03:32;;;;;;;25.30;14.30;;;;;;;-4.19;100.00;100084.53;1720284;83;21460;-63
2021/11/17 05:06:08;;;;;;;35.52;15.98;;;;;;;-4.17;100.00;100092.38;1749624;81;20884;-67
2021/11/17 05:09:07;;;;;;;33.23;15.50;;;;;;;-4.15;100.00;100101.09;1749553;82;21471;-62
2021/11/17 05:12:08;;;;;;;29.50;14.70;;;;;;;-4.12;100.00;100094.85;1745759;82;20928;-64
2021/11/17 05:14:50;;;;;;;27.27;14.83;;;;;;;-4.10;100.00;100095.84;1664159;81;21091;-64
2021/11/17 05:17:28;;;;;;;27.00;14.78;;;;;;;-4.10;100.00;100089.41;1743756;81;20900;-64
2021/11/17 05:20:16;;;;;;;56.15;16.30;;;;;;;-4.11;100.00;100091.48;1743744;81;21407;-63
2021/11/17 05:23:10;;;;;;;27.58;14.25;;;;;;;-4.14;100.00;100097.72;1743893;80;20995;-65
2021/11/17 05:25:52;;;;;;;25.08;14.23;;;;;;;-4.21;100.00;100096.82;1744524;81;20869;-63
2021/11/17 05:28:42;;;;;;;;;;;;;;;-4.29;100.00;100096.67;1747174;81;21065;-64
2021/11/17 05:31:35;;;;;;;29.82;14.03;;;;;;;-4.37;100.00;100106.85;1744535;80;20464;-65
2021/11/17 05:34:11;;;;;;;24.70;13.70;;;;;;;-4.42;100.00;100111.69;1744372;80;20929;-64
2021/11/17 05:37:16;;;;;;;23.70;13.70;;;;;;;-4.47;100.00;100112.67;1744964;82;20877;-64
2021/11/17 05:40:04;;;;;;;40.48;14.63;;;;;;;-4.48;100.00;100113.85;1744460;81;20877;-65
2021/11/17 05:42:51;;;;;;;22.62;14.05;;;;;;;-4.51;100.00;100113.64;1744987;82;21131;-64
2021/11/17 05:45:47;;;;;;;23.75;13.95;;;;;;;-4.52;100.00;100110.17;1744580;81;20943;-64
2021/11/17 05:48:38;;;;;;;30.50;14.73;;;;;;;-4.50;100.00;100107.70;1744911;80;20937;-64
2021/11/17 05:51:37;;;;;;;24.20;13.95;;;;;;;-4.51;100.00;100110.67;1744690;80;20936;-64
2021/11/17 05:54:26;;;;;;;24.90;14.58;;;;;;;-4.48;100.00;100106.13;1744998;80;21464;-63
2021/11/17 05:57:14;;;;;;;24.55;13.65;;;;;;;-4.46;100.00;100093.86;1744455;80;21178;-64
2021/11/17 06:00:16;;;;;;;21.15;13.80;;;;;;;-4.41;100.00;100095.84;1745391;81;20908;-64
2021/11/17 06:03:13;;;;;;;39.50;15.72;;;;;;;-4.37;100.00;100091.00;1744700;82;20877;-64
2021/11/17 06:05:40;;;;;;;22.42;13.20;;;;;;;-4.30;100.00;100094.48;1744968;80;21510;-64
2021/11/17 06:08:06;;;;;;;24.92;13.38;;;;;;;-4.26;100.00;100097.77;1744751;80;20892;-64
2021/11/17 06:10:36;;;;;;;22.50;13.55;;;;;;;-4.24;100.00;100094.93;1746730;81;21097;-64
2021/11/17 06:13:05;;;;;;;22.93;13.72;;;;;;;-4.26;100.00;100100.34;1757962;80;20927;-65
2021/11/17 06:15:33;;;;;;;20.95;13.90;;;;;;;-4.26;100.00;100098.16;1741257;81;21502;-65
2021/11/17 06:18:01;;;;;;;23.07;13.45;;;;;;;-4.27;100.00;100084.39;1758007;80;20927;-64
2021/11/17 06:20:29;;;;;;;22.22;14.33;;;;;;;-4.25;100.00;100093.55;1758319;81;20927;-64
2021/11/17 06:23:04;;;;;;;22.30;13.93;;;;;;;-4.21;100.00;100094.25;1758016;80;21055;-64
2021/11/17 06:25:32;;;;;;;26.35;14.38;;;;;;;-4.16;100.00;100100.59;1758367;81;20900;-64
2021/11/17 06:28:04;;;;;;;23.05;14.50;;;;;;;-4.13;100.00;100105.56;1758175;80;20872;-65
2021/11/17 06:30:34;;;;;;;24.37;13.85;;;;;;;-4.06;100.00;100108.54;1758247;81;20960;-65
2021/11/17 06:33:02;;;;;;;39.53;16.05;;;;;;;-4.04;100.00;100102.70;1758048;81;20939;-64
2021/11/17 06:35:29;;;;;;;26.30;13.93;;;;;;;-3.98;100.00;100106.97;1758279;80;21091;-63
2021/11/17 06:37:58;;;;;;;26.35;14.15;;;;;;;-3.91;100.00;100096.66;1757955;80;21351;-64
2021/11/17 06:40:26;;;;;;;22.93;14.30;;;;;;;-3.87;100.00;100101.23;1758292;81;20868;-64
2021/11/17 06:42:56;;;;;;;23.70;14.25;;;;;;;-3.83;100.00;100103.22;1758006;80;21462;-64
2021/11/17 06:45:45;;;;;;;23.47;13.40;;;;;;;-3.80;100.00;100103.02;1758297;81;20841;-65
2021/11/17 06:48:13;;;;;;;21.80;13.43;;;;;;;-3.74;100.00;100107.72;1758197;80;21831;-64
2021/11/17 06:50:43;;;;;;;28.17;13.60;;;;;;;-3.67;100.00;100112.88;1758399;81;20895;-64
2021/11/17 06:53:11;;;;;;;24.45;12.95;;;;;;;-3.61;100.00;100106.42;1758224;80;20880;-64
2021/11/17 06:55:39;;;;;;;20.20;13.38;;;;;;;-3.54;100.00;100103.45;1758422;80;20938;-64
2021/11/17 06:58:07;;;;;;;65.55;15.75;;;;;;;-3.45;100.00;100103.55;1758186;81;20931;-64
2021/11/17 07:00:36;;;;;;;24.70;14.33;;;;;;;-3.40;100.00;100107.30;1758157;81;21081;-64
2021/11/17 07:03:04;;;;;;;27.07;14.45;;;;;;;-3.35;100.00;100107.20;1758445;80;21380;-64
2021/11/17 07:05:31;;;;;;;28.98;14.03;;;;;;;-3.31;100.00;100108.81;1758152;80;20868;-65
2021/11/17 07:08:00;;;;;;;21.20;13.85;;;;;;;-3.24;100.00;100104.54;1758342;81;20932;-64
2021/11/17 07:10:29;;;;;;;23.83;14.10;;;;;;;-3.18;100.00;100107.50;1758225;80;20999;-65
2021/11/17 07:12:57;;;;;;;23.47;14.93;;;;;;;-3.09;100.00;100114.04;1744788;81;21776;-65
2021/11/17 07:15:26;;;;;;;26.77;15.20;;;;;;;-3.02;100.00;100113.62;1744724;82;20915;-65
2021/11/17 07:17:54;;;;;;;26.70;14.40;;;;;;;-2.96;100.00;100113.61;1745026;81;20912;-65
2021/11/17 07:20:23;;;;;;;23.25;14.18;;;;;;;-2.90;100.00;100110.12;1744768;80;20865;-64
2021/11/17 07:22:51;;;;;;;23.10;14.53;;;;;;;-2.83;100.00;100112.72;1744859;81;20873;-65
2021/11/17 07:25:20;;;;;;;19.50;12.70;;;;;;;-2.76;100.00;100107.52;1744849;82;21142;-65
2021/11/17 07:27:48;;;;;;;26.75;13.83;;;;;;;-2.64;100.00;100108.27;1745096;80;21376;-65
2021/11/17 07:30:21;;;;;;;33.35;13.70;;;;;;;-2.60;100.00;100102.50;1744819;82;20981;-64
2021/11/17 07:32:49;;;;;;;31.50;13.90;;;;;;;-2.51;100.00;100104.34;1735069;80;20931;-65
2021/11/17 07:35:19;;;;;;;18.37;12.82;;;;;;;-2.43;100.00;100097.05;1744950;82;21368;-65
2021/11/17 07:37:47;;;;;;;21.70;13.30;;;;;;;-2.37;100.00;100100.00;1745156;80;21750;-64
2021/11/17 07:40:14;;;;;;;25.08;13.20;;;;;;;-2.29;100.00;100093.23;1744815;82;21479;-65
2021/11/17 07:42:42;;;;;;;23.45;13.18;;;;;;;-2.16;100.00;100091.37;1745054;80;20928;-65
2021/11/17 07:45:12;;;;;;;21.35;13.25;;;;;;;-2.08;100.00;100087.14;1734150;80;20884;-64
2021/11/17 07:47:40;;;;;;;30.05;13.58;;;;;;;-1.93;100.00;100089.72;1745083;80;21456;-64
2021/11/17 07:50:09;;;;;;;22.87;12.80;;;;;;;-1.83;100.00;100084.72;1744782;82;21098;-64
2021/11/17 07:52:37;;;;;;;60.03;14.83;;;;;;;-1.72;100.00;100091.39;1745005;80;21439;-64
2021/11/17 07:55:05;;;;;;;20.95;11.93;;;;;;;-1.61;100.00;100088.61;1744828;80;20869;-64
2021/11/17 07:57:33;;;;;;;54.13;14.47;;;;;;;-1.50;100.00;100088.33;1745037;82;20893;-64
2021/11/17 08:00:03;;;;;;;22.25;11.15;;;;;;;-1.41;100.00;100087.17;1744798;80;20892;-64
2021/11/17 08:02:32;;;;;;;16.87;10.90;;;;;;;-1.33;100.00;100087.20;1744665;81;21086;-64
2021/11/17 08:05:01;;;;;;;16.60;10.08;;;;;;;-1.24;100.00;100098.46;1744734;81;21412;-65
2021/11/17 08:07:30;;;;;;;14.28;9.05;;;;;;;-1.15;100.00;100096.38;1745007;81;20916;-64
2021/11/17 08:09:58;;;;;;;15.35;8.90;;;;;;;-1.02;100.00;100097.53;1734487;82;20964;-64
2021/11/17 08:12:26;;;;;;;22.05;10.20;;;;;;;-0.90;100.00;100093.86;1753458;80;20892;-64
2021/11/17 08:14:54;;;;;;;17.42;9.95;;;;;;;-0.79;100.00;100094.92;1758161;80;21757;-64
2021/11/17 08:17:23;;;;;;;21.73;9.85;;;;;;;-0.70;100.00;100088.05;1758329;81;21396;-64
2021/11/17 08:19:50;;;;;;;14.43;9.73;;;;;;;-0.61;100.00;100089.83;1758141;80;20915;-64
2021/11/17 08:22:18;;;;;;;18.20;9.13;;;;;;;-0.54;100.00;100087.16;1758085;80;20928;-64
2021/11/17 08:24:45;;;;;;;15.03;9.88;;;;;;;-0.47;100.00;100088.89;1758130;81;21058;-64
2021/11/17 08:27:18;;;;;;;13.93;9.35;;;;;;;-0.39;100.00;100086.28;1758064;81;21146;-64
2021/11/17 08:29:51;;;;;;;17.42;10.48;;;;;;;-0.39;100.00;100084.98;1758179;80;20883;-64
2021/11/17 08:32:19;;;;;;;16.45;10.93;;;;;;;-0.34;100.00;100086.52;1758092;80;21003;-64
2021/11/17 08:34:47;;;;;;;15.45;9.90;;;;;;;-0.31;100.00;100084.09;1758073;81;21530;-64
2021/11/17 08:37:14;;;;;;;18.50;10.18;;;;;;;-0.19;100.00;100075.64;1758107;80;20942;-64
2021/11/17 08:39:42;;;;;;;15.05;9.78;;;;;;;-0.09;100.00;100079.59;1758097;81;21109;-64
2021/11/17 08:42:11;;;;;;;15.70;10.15;;;;;;;0.00;100.00;100077.49;1758022;81;20883;-64
2021/11/17 08:44:42;;;;;;;16.30;10.70;;;;;;;0.09;100.00;100084.44;1758097;81;20951;-64
2021/11/17 08:47:13;;;;;;;18.00;10.82;;;;;;;0.15;100.00;100079.55;1758023;81;20903;-64
2021/11/17 08:49:40;;;;;;;18.50;11.28;;;;;;;0.24;100.00;100073.52;1758082;81;21440;-64
2021/11/17 08:52:08;;;;;;;20.20;10.90;;;;;;;0.33;100.00;100070.48;1758086;80;21109;-64
2021/11/17 08:54:38;;;;;;;19.98;10.75;;;;;;;0.44;100.00;100064.52;1758090;81;21411;-64
2021/11/17 08:57:07;;;;;;;16.00;10.25;;;;;;;0.57;100.00;100066.92;1758187;80;20908;-64
2021/11/17 08:59:34;;;;;;;14.55;10.08;;;;;;;0.67;100.00;100061.76;1758075;81;20927;-64
2021/11/17 09:02:03;;;;;;;16.80;10.48;;;;;;;0.79;100.00;100062.34;1758062;80;20866;-65
2021/11/17 09:04:31;;;;;;;16.60;10.88;;;;;;;0.89;100.00;100058.94;1758056;80;21151;-64
2021/11/17 09:06:59;;;;;;;15.80;11.35;;;;;;;1.05;100.00;100064.88;1758014;80;20927;-64
2021/11/17 09:09:26;;;;;;;17.98;11.50;;;;;;;1.13;100.00;100061.81;1758048;81;20904;-64
2021/11/17 09:11:54;;;;;;;18.92;10.85;;;;;;;1.30;100.00;100054.77;1754377;80;20889;-65
2021/11/17 09:14:21;;;;;;;17.87;9.70;;;;;;;1.43;100.00;100048.44;1744783;81;21486;-65
2021/11/17 09:16:49;;;;;;;16.80;9.80;;;;;;;1.61;100.00;100054.45;1745120;80;21432;-65
2021/11/17 09:19:17;;;;;;;15.98;9.80;;;;;;;1.80;100.00;100049.21;1744633;82;20932;-65
2021/11/17 09:21:45;;;;;;;17.37;10.30;;;;;;;1.99;100.00;100039.62;1744716;80;20931;-63
2021/11/17 09:24:15;;;;;;;15.95;10.05;;;;;;;2.17;100.00;100047.77;1744735;81;20849;-65
2021/11/17 09:26:42;;;;;;;16.32;9.88;;;;;;;2.28;100.00;100040.82;1744739;82;20936;-65
2021/11/17 09:29:10;;;;;;;16.50;10.03;;;;;;;2.35;100.00;100040.23;1744697;80;21119;-65
2021/11/17 09:31:40;;;;;;;22.98;8.90;;;;;;;2.45;100.00;100035.91;1744647;82;20924;-65
2021/11/17 09:34:08;;;;;;;15.48;9.25;;;;;;;2.59;100.00;100026.04;1744699;81;20900;-64
2021/11/17 09:36:36;;;;;;;14.90;8.65;;;;;;;2.67;100.00;100032.44;1744747;82;21471;-65
2021/11/17 09:39:06;;;;;;;12.88;8.53;;;;;;;2.75;100.00;100016.27;1744757;81;20908;-66
2021/11/17 09:41:42;;;;;;;16.95;9.48;;;;;;;2.83;100.00;100013.55;1744725;80;21148;-66
2021/11/17 09:44:19;;;;;;;13.50;8.45;;;;;;;2.91;100.00;100007.77;1733887;82;20908;-66
2021/11/17 09:46:47;;;;;;;15.58;8.63;;;;;;;3.00;100.00;100007.70;1744746;81;20924;-63
2021/11/17 09:49:22;;;;;;;14.58;8.63;;;;;;;3.06;100.00;99997.92;1744921;81;20892;-65
2021/11/17 09:51:54;;;;;;;13.60;8.93;;;;;;;3.20;100.00;99999.73;1743412;82;20948;-70
2021/11/17 09:54:58;;;;;;;16.27;8.95;;;;;;;3.28;100.00;99992.66;1744266;81;21083;-66
2021/11/17 09:57:30;;;;;;;27.22;9.30;;;;;;;3.36;100.00;99984.72;1744634;80;21601;-64
2021/11/17 10:00:18;;;;;;;13.93;8.20;;;;;;;3.54;100.00;99982.30;1745251;80;20912;-63
2021/11/17 10:03:18;;;;;;;14.58;8.03;;;;;;;3.73;100.00;99970.34;1708896;84;21464;-64
2021/11/17 10:09:18;;;;;;;12.00;7.50;;;;;;;3.98;100.00;99972.98;1708918;82;21027;-63
2021/11/17 10:11:29;;;;;;;15.63;8.43;;;;;;;4.06;100.00;99965.39;1705924;82;20904;-65
2021/11/17 10:13:59;;;;;;;14.80;7.97;;;;;;;4.08;100.00;99963.72;1717610;83;21399;-63
2021/11/17 10:16:24;;;;;;;11.12;7.33;;;;;;;4.09;100.00;99955.05;1721709;82;20930;-65
2021/11/17 10:19:26;;;;;;;11.83;8.00;;;;;;;4.13;100.00;99962.56;1721911;82;21497;-68
2021/11/17 10:22:05;;;;;;;12.50;7.15;;;;;;;4.10;100.00;99962.05;1719533;82;21281;-67
2021/11/17 10:24:46;;;;;;;34.13;8.60;;;;;;;4.09;100.00;99954.63;1721532;83;21514;-67
2021/11/17 10:27:26;;;;;;;14.05;7.30;;;;;;;4.22;100.00;99955.91;1722123;83;20915;-66
2021/11/17 10:29:59;;;;;;;12.45;7.30;;;;;;;4.32;100.00;99959.73;1722107;83;20884;-67
2021/11/17 10:32:47;;;;;;;10.93;6.97;;;;;;;4.38;100.00;99959.51;1722169;82;21371;-66
2021/11/17 10:35:31;;;;;;;25.55;9.43;;;;;;;4.49;100.00;99957.64;1720015;82;21190;-67
2021/11/17 10:38:04;;;;;;;15.38;8.38;;;;;;;4.56;100.00;99956.57;1722304;82;20879;-65
2021/11/17 10:40:34;;;;;;;12.33;8.03;;;;;;;4.59;99.81;99961.00;1722111;82;20899;-65
2021/11/17 10:43:08;;;;;;;14.63;8.00;;;;;;;4.68;99.30;99951.72;1696007;82;21010;-65
2021/11/17 10:45:46;;;;;;;12.05;7.92;;;;;;;4.90;99.92;99947.15;1722155;82;20907;-67
2021/11/17 10:48:25;;;;;;;12.47;7.25;;;;;;;5.15;98.32;99947.42;1722316;82;21093;-67
2021/11/17 10:51:12;;;;;;;13.38;7.75;;;;;;;5.35;97.61;99938.43;1721898;82;21391;-65
2021/11/17 10:53:39;;;;;;;11.22;7.83;;;;;;;5.59;96.28;99932.95;1699962;83;20940;-67
2021/11/17 10:56:11;;;;;;;13.32;7.75;;;;;;;5.74;93.43;99929.46;1722359;82;21426;-64
2021/11/17 10:58:42;;;;;;;12.68;7.85;;;;;;;5.74;90.53;99922.91;1722025;82;20939;-67
2021/11/17 11:01:29;;;;;;;14.93;7.15;;;;;;;5.83;89.51;99924.87;1722381;82;21092;-65
2021/11/17 11:04:09;;;;;;;10.03;6.30;;;;;;;5.94;87.76;99919.09;1722021;82;20906;-68
2021/11/17 11:06:50;;;;;;;41.25;8.90;;;;;;;5.95;84.48;99918.24;1722362;82;20942;-67
2021/11/17 11:09:37;;;;;;;12.43;7.00;;;;;;;6.03;83.38;99914.92;1697722;82;20931;-64
2021/11/17 11:12:05;;;;;;;10.68;7.10;;;;;;;6.19;82.22;99911.42;1697247;83;21053;-65
2021/11/17 11:14:37;;;;;;;10.10;6.15;;;;;;;6.39;80.28;99909.69;1716705;83;21101;-63
2021/11/17 11:17:37;;;;;;;9.88;5.03;;;;;;;6.56;78.48;99914.45;1753145;80;21038;-62
2021/11/17 11:20:24;;;;;;;10.82;6.62;;;;;;;6.52;75.35;99906.06;1752788;80;20888;-66
2021/11/17 11:23:16;;;;;;;11.55;7.03;;;;;;;6.51;74.24;99909.95;1753156;82;20948;-64
2021/11/17 11:26:06;;;;;;;10.55;6.78;;;;;;;6.57;72.62;99908.36;1752821;82;20888;-63
2021/11/17 11:28:47;;;;;;;13.25;7.20;;;;;;;6.48;70.50;99900.30;1734335;82;21431;-63
2021/11/17 11:31:44;;;;;;;19.85;6.87;;;;;;;6.40;68.52;99895.73;1752766;80;20833;-64
2021/11/17 11:34:31;;;;;;;11.35;6.28;;;;;;;6.35;67.39;99898.68;1752987;82;20884;-64
2021/11/17 11:37:00;;;;;;;12.95;7.67;;;;;;;6.24;66.14;99892.77;1752760;82;20899;-67
2021/11/17 11:39:32;;;;;;;13.03;7.05;;;;;;;6.18;65.16;99896.56;1734042;82;20903;-66
2021/11/17 11:42:32;;;;;;;13.32;7.53;;;;;;;6.18;65.06;99887.39;1716659;82;21133;-65
2021/11/17 11:45:29;;;;;;;11.22;7.55;;;;;;;6.33;64.98;99888.59;1716857;82;20915;-63
2021/11/17 11:48:07;;;;;;;14.65;7.25;;;;;;;6.35;64.51;99882.53;1752730;82;20869;-64
2021/11/17 11:50:52;;;;;;;12.60;7.70;;;;;;;6.36;63.75;99884.73;1716851;82;20895;-66
2021/11/17 11:53:50;;;;;;;11.20;6.70;;;;;;;6.42;63.44;99889.67;1716717;82;20891;-64
2021/11/17 11:56:29;;;;;;;15.35;6.53;;;;;;;6.45;62.39;99887.13;1752982;80;21104;-63
2021/11/17 11:59:26;;;;;;;12.63;6.58;;;;;;;6.35;61.46;99882.95;1710514;82;21441;-63
2021/11/17 12:02:09;;;;;;;12.63;6.90;;;;;;;6.35;61.22;99873.78;1711233;82;20892;-63
2021/11/17 12:04:47;;;;;;;11.88;7.15;;;;;;;6.56;61.40;99879.48;1709167;82;20956;-65
2021/11/17 12:07:19;;;;;;;11.50;6.20;;;;;;;6.58;60.37;99874.73;1708549;82;20993;-67
2021/11/17 12:09:58;;;;;;;12.15;6.42;;;;;;;6.59;59.80;99867.77;1708956;83;21189;-64
2021/11/17 12:12:32;;;;;;;8.55;6.20;;;;;;;6.77;59.60;99873.84;1707823;83;20908;-63
2021/11/17 12:15:31;;;;;;;10.72;6.10;;;;;;;6.93;58.86;99864.12;1701326;84;20897;-65
2021/11/17 12:18:18;;;;;;;9.35;6.03;;;;;;;7.01;57.77;99866.89;1700860;83;20913;-64
2021/11/17 12:21:02;;;;;;;8.70;5.78;;;;;;;6.94;56.24;99863.27;1701287;84;20958;-67
2021/11/17 12:23:35;;;;;;;11.65;6.55;;;;;;;6.86;55.25;99864.84;1701503;84;21826;-64
2021/11/17 12:26:21;;;;;;;7.97;5.50;;;;;;;6.74;54.29;99856.31;1700188;84;20940;-63
2021/11/17 12:29:00;;;;;;;12.98;5.90;;;;;;;6.84;54.54;99858.69;1701467;83;20912;-65
2021/11/17 12:31:37;;;;;;;10.13;6.10;;;;;;;6.98;54.27;99865.09;1701253;84;21425;-64
2021/11/17 12:34:28;;;;;;;24.47;6.22;;;;;;;7.13;54.10;99864.10;1701481;83;20940;-67
2021/11/17 12:37:25;;;;;;;9.00;5.80;;;;;;;7.42;54.07;99862.01;1701198;84;21428;-66
2021/11/17 12:40:13;;;;;;;9.05;5.92;;;;;;;7.62;53.30;99859.76;1700268;83;20909;-66
2021/11/17 12:42:55;;;;;;;8.00;5.83;;;;;;;7.76;52.88;99854.30;1701222;83;20901;-66
2021/11/17 12:45:41;;;;;;;8.15;5.22;;;;;;;8.02;52.46;99853.83;1701559;83;20981;-66
2021/11/17 12:48:31;;;;;;;9.55;5.42;;;;;;;8.27;51.21;99859.92;1701172;83;21013;-66
2021/11/17 12:51:15;;;;;;;12.73;5.35;;;;;;;8.33;50.28;99852.56;1701442;83;21110;-67
2021/11/17 12:53:59;;;;;;;8.03;5.37;;;;;;;8.62;49.85;99853.89;1701161;83;20940;-66
2021/11/17 12:56:41;;;;;;;15.75;6.10;;;;;;;8.97;49.42;99849.48;1701257;83;21451;-66
2021/11/17 12:59:23;;;;;;;7.05;5.35;;;;;;;8.97;47.95;99849.05;1701445;83;20885;-66
2021/11/17 13:02:01;;;;;;;19.42;5.78;;;;;;;8.99;47.31;99855.69;1701482;84;20909;-66
2021/11/17 13:04:41;;;;;;;9.10;5.20;;;;;;;9.04;46.68;99847.41;1701235;83;21124;-66
2021/11/17 13:07:12;;;;;;;10.38;5.78;;;;;;;8.99;45.75;99846.05;1701503;83;21377;-67
2021/11/17 13:09:48;;;;;;;8.23;5.30;;;;;;;8.94;45.65;99845.08;1681419;84;21432;-66
2021/11/17 13:12:35;;;;;;;29.95;6.60;;;;;;;9.18;45.67;99843.17;1701475;84;20968;-66
2021/11/17 13:15:09;;;;;;;16.25;5.78;;;;;;;9.28;45.19;99841.08;1701542;83;21432;-68
2021/11/17 13:17:44;;;;;;;11.60;5.95;;;;;;;9.05;44.55;99835.58;1750520;80;21100;-68
2021/11/17 13:20:23;;;;;;;11.33;6.10;;;;;;;8.71;44.26;99840.86;1712262;82;21391;-69
2021/11/17 13:23:15;;;;;;;15.85;6.25;;;;;;;8.29;43.95;99838.92;1711466;82;20973;-70
2021/11/17 13:25:57;;;;;;;10.20;6.55;;;;;;;7.74;43.83;99840.27;1750767;80;20924;-70
2021/11/17 13:28:42;;;;;;;9.65;6.70;;;;;;;7.24;44.08;99842.88;1746269;82;26800;-70
2021/11/17 13:31:28;;;;;;;14.13;7.78;;;;;;;6.88;44.42;99842.16;1750688;80;21447;-71
2021/11/17 13:34:06;;;;;;;10.80;7.95;;;;;;;6.55;44.80;99835.36;1712292;82;20888;-66
2021/11/17 13:36:49;;;;;;;18.25;8.00;;;;;;;6.36;45.31;99834.52;1702070;82;20980;-65
2021/11/17 13:39:19;;;;;;;14.87;8.78;;;;;;;6.32;45.78;99835.30;1712404;82;20939;-65
2021/11/17 13:41:54;;;;;;;19.23;9.10;;;;;;;6.26;46.12;99844.34;1750461;82;21383;-65
2021/11/17 13:44:25;;;;;;;19.17;8.48;;;;;;;6.05;46.32;99835.97;1750667;80;21122;-65
2021/11/17 13:46:57;;;;;;;17.20;8.80;;;;;;;5.86;46.65;99830.70;1750273;80;20974;-66
2021/11/17 13:49:25;;;;;;;19.57;8.63;;;;;;;5.67;46.89;99836.77;1750557;80;20980;-64
2021/11/17 13:51:53;;;;;;;13.62;8.48;;;;;;;5.52;47.14;99832.47;1712275;83;21047;-65
2021/11/17 13:54:21;;;;;;;76.25;14.20;;;;;;;5.33;47.31;99842.02;1750391;81;20881;-66
2021/11/17 13:56:49;;;;;;;30.90;9.00;;;;;;;5.14;47.59;99841.93;1750585;82;21091;-64
2021/11/17 13:59:16;;;;;;;150.10;16.27;;;;;;;5.10;47.90;99837.47;1750222;82;20888;-65
2021/11/17 14:01:44;;;;;;;17.52;7.90;;;;;;;5.10;48.13;99837.47;1750641;80;20849;-65
2021/11/17 14:07:55;;;;;;;16.77;8.85;;;;;;;5.08;48.35;99833.03;1798308;79;23396;-66
2021/11/17 14:10:23;;;;;;;25.82;10.70;;;;;;;4.93;48.29;99833.09;1758438;80;21584;-67
2021/11/17 14:12:52;;;;;;;40.98;11.97;;;;;;;4.74;48.27;99839.55;1758402;80;21568;-67
2021/11/17 14:15:20;;;;;;;27.42;12.37;;;;;;;4.62;48.33;99835.25;1758268;81;20907;-68
2021/11/17 14:17:50;;;;;;;30.57;13.08;;;;;;;4.54;48.48;99835.88;1758298;81;20907;-68
2021/11/17 14:20:18;;;;;;;26.27;13.98;;;;;;;4.47;48.64;99826.09;1758222;80;21040;-68
2021/11/17 14:22:46;;;;;;;34.98;14.47;;;;;;;4.43;48.81;99827.73;1758310;81;20995;-67
2021/11/17 14:25:17;;;;;;;38.73;14.25;;;;;;;4.41;48.91;99824.19;1758416;81;21172;-68
2021/11/17 14:27:52;;;;;;;78.20;15.58;;;;;;;4.36;48.97;99831.89;1758315;80;20951;-66
2021/11/17 14:30:40;;;;;;;29.98;13.72;;;;;;;4.27;49.01;99834.65;1758253;81;20874;-68
2021/11/17 14:33:08;;;;;;;21.12;13.10;;;;;;;4.20;49.11;99836.58;1758368;80;21392;-69
2021/11/17 14:35:36;;;;;;;30.68;14.45;;;;;;;4.10;49.24;99833.70;1758249;81;21449;-69
2021/11/17 14:38:05;;;;;;;29.32;14.40;;;;;;;4.03;49.35;99827.82;1758351;81;21276;-68
2021/11/17 14:40:33;;;;;;;30.55;15.38;;;;;;;3.97;49.47;99827.63;1758647;81;21354;-69
2021/11/17 14:43:04;;;;;;;42.30;17.10;;;;;;;3.93;49.59;99830.10;1758400;81;21483;-68
2021/11/17 14:45:32;;;;;;;45.80;16.73;;;;;;;3.88;49.69;99823.85;1758591;81;20939;-78
2021/11/17 14:48:00;;;;;;;34.58;17.65;;;;;;;3.83;49.83;99826.73;1758319;81;20942;-66
2021/11/17 14:50:29;;;;;;;37.85;16.27;;;;;;;3.77;49.94;99825.67;1758247;80;21165;-66